sensor_id;sensor_type;location;lat;lon;timestamp;temperature;humidity
59703;DHT22;45570;48.782;8.332;2022-11-20T10:54:49;8.50;99.90
59703;DHT22;45570;48.782;8.332;2022-11-20T10:57:35;9.20;99.90
59703;DHT22;45570;48.782;8.332;2022-11-20T11:00:10;10.50;99.90
59703;DHT22;45570;48.782;8.332;2022-11-20T11:02:41;11.60;99.90
59703;DHT22;45570;48.782;8.332;2022-11-20T11:05:27;12.00;99.90
59703;DHT22;45570;48.782;8.332;2022-11-20T11:08:00;11.50;99.90
59703;DHT22;45570;48.782;8.332;2022-11-20T11:10:35;11.00;99.90
59703;DHT22;45570;48.782;8.332;2022-11-20T11:13:06;10.50;99.90
59703;DHT22;45570;48.782;8.332;2022-11-20T11:15:38;9.90;99.90
59703;DHT22;45570;48.782;8.332;2022-11-20T11:18:09;9.50;99.90
59703;DHT22;45570;48.782;8.332;2022-11-20T11:20:38;9.30;99.90
59703;DHT22;45570;48.782;8.332;2022-11-20T11:23:26;9.40;99.90
59703;DHT22;45570;48.782;8.332;2022-11-20T11:25:59;9.20;99.90
59703;DHT22;45570;48.782;8.332;2022-11-20T11:28:28;9.20;99.90
59703;DHT22;45570;48.782;8.332;2022-11-20T11:30:57;9.30;99.90
59703;DHT22;45570;48.782;8.332;2022-11-20T11:33:27;9.30;99.90
59703;DHT22;45570;48.782;8.332;2022-11-20T11:35:58;9.40;99.90
59703;DHT22;45570;48.782;8.332;2022-11-20T11:38:30;9.30;99.90
59703;DHT22;45570;48.782;8.332;2022-11-20T11:41:01;9.40;99.90
59703;DHT22;45570;48.782;8.332;2022-11-20T11:43:35;9.50;99.90
59703;DHT22;45570;48.782;8.332;2022-11-20T11:46:30;9.50;99.90
59703;DHT22;45570;48.782;8.332;2022-11-20T11:49:01;9.70;99.90
59703;DHT22;45570;48.782;8.332;2022-11-20T11:54:24;10.80;99.90
59703;DHT22;45570;48.782;8.332;2022-11-20T11:56:59;11.60;99.90
59703;DHT22;45570;48.782;8.332;2022-11-20T11:59:35;12.60;99.90
59703;DHT22;45570;48.782;8.332;2022-11-20T12:02:20;13.70;99.90
59703;DHT22;45570;48.782;8.332;2022-11-20T12:04:55;13.10;99.90
59703;DHT22;45570;48.782;8.332;2022-11-20T12:07:35;12.90;99.90
59703;DHT22;45570;48.782;8.332;2022-11-20T12:10:17;12.90;99.90
59703;DHT22;45570;48.782;8.332;2022-11-20T12:12:53;12.10;99.90
59703;DHT22;45570;48.782;8.332;2022-11-20T12:15:30;11.10;99.90
59703;DHT22;45570;48.782;8.332;2022-11-20T12:17:59;10.40;99.90
59703;DHT22;45570;48.782;8.332;2022-11-20T12:20:31;10.20;99.90
59703;DHT22;45570;48.782;8.332;2022-11-20T12:23:07;9.80;99.90
59703;DHT22;45570;48.782;8.332;2022-11-20T12:25:39;9.70;99.90
59703;DHT22;45570;48.782;8.332;2022-11-20T12:28:30;9.50;99.90
59703;DHT22;45570;48.782;8.332;2022-11-20T12:31:26;9.50;99.90
59703;DHT22;45570;48.782;8.332;2022-11-20T12:34:12;9.60;99.90
59703;DHT22;45570;48.782;8.332;2022-11-20T12:36:48;9.60;99.90
59703;DHT22;45570;48.782;8.332;2022-11-20T12:39:35;9.40;99.90
59703;DHT22;45570;48.782;8.332;2022-11-20T12:42:25;9.50;99.90
59703;DHT22;45570;48.782;8.332;2022-11-20T12:48:33;9.30;99.90
59703;DHT22;45570;48.782;8.332;2022-11-20T12:51:48;9.10;99.90
59703;DHT22;45570;48.782;8.332;2022-11-20T12:57:27;8.90;99.90
59703;DHT22;45570;48.782;8.332;2022-11-20T13:00:06;8.80;99.90
59703;DHT22;45570;48.782;8.332;2022-11-20T13:02:52;8.90;99.90
59703;DHT22;45570;48.782;8.332;2022-11-20T13:05:31;8.80;99.90
59703;DHT22;45570;48.782;8.332;2022-11-20T13:08:08;8.90;99.90
59703;DHT22;45570;48.782;8.332;2022-11-20T13:10:46;8.80;99.90
59703;DHT22;45570;48.782;8.332;2022-11-20T13:13:22;8.80;99.90
59703;DHT22;45570;48.782;8.332;2022-11-20T13:15:57;8.70;99.90
59703;DHT22;45570;48.782;8.332;2022-11-20T13:51:18;10.10;99.90
59703;DHT22;45570;48.782;8.332;2022-11-20T13:57:14;13.00;99.90
59703;DHT22;45570;48.782;8.332;2022-11-20T13:59:56;13.00;99.90
59703;DHT22;45570;48.782;8.332;2022-11-20T14:02:27;12.90;99.90
59703;DHT22;45570;48.782;8.332;2022-11-20T14:04:58;12.70;99.90
59703;DHT22;45570;48.782;8.332;2022-11-20T14:07:39;11.90;99.90
59703;DHT22;45570;48.782;8.332;2022-11-20T14:10:19;11.70;99.90
59703;DHT22;45570;48.782;8.332;2022-11-20T14:12:56;11.30;99.90
